FMMIFMSD

Guest
Details From FMMI - IVATO
To FMSD - TOLAGNARO
Flight Number -
Tags generated
Created
Modified
Stats Distance 395 nm / 732 km
Max Altitude 35,000 ft / 10,668 m
Waypoints 4
Social Downloads 0
Likes 0
Share VATSIM

Download

Looking for another format? Having issues loading an existing format? Contact us
Advertisement - Login to hide

Notes

Basic altitude profile: - Ascent Rate: 2500ft/min - Ascent Speed: 250kts - Cruise Altitude: 35000ft - Cruise Speed: 420kts - Descent Rate: 1500ft/min - Descent Speed: 250kts Options: - Use NATs: yes - Use PACOTS: yes - Use low airways: yes - Use high airways: yes

Route

FMMI LAKRA XURIK FMSD

ID Type Via Altitude Latitude Longitude Leg Dist Tot Dist Heading (true) Name
O FMMI APT - 0 ft / 0 m -18.79695˚ 47.47881˚ - 0 nm - IVATO
LAKRA FIX - 35,000 ft / 10,668 m -22.58972˚ 48.00000˚ 229 nm 229 nm 173° / 173° -
XURIK FIX - 4,700 ft / 1,433 m -24.89139˚ 47.33278˚ 143 nm 372 nm 195° / 195° -
O FMSD APT - 0 ft / 0 m -25.03928˚ 46.95638˚ 22 nm 395 nm 246° / 247° TOLAGNARO

Altitude Profile

Advertisement - Login to hide

Weather


0- 5 10 15 20 25 30 35+ Temperature / ° C

Clouds and Precipitation
Forecast for 2017-12-15 12:00 UTC. Updated an hour ago

Ground ~20,000 ft ~40,000 ft Winds

FMMI

Details ICAO FMMI (TNR)
Name IVATO
Region Comoros, Mayotte, Réunion and Madagascar
Timezone Indian/Antananarivo (UTC+3.0)
Stats Elevation 4,198 ft / 1,280 m (AMSL)
Location -18.796950° 47.478806°
Runways 1
Magnetic Variation 15.161° W

METAR

FMMI 151230Z 20008KT 200V280 9999 TS BKN020CB SCT023 22/19 Q1018 WS RWY11 TEMPO 4000 TSRA

Decode

TAF

TAF FMMI 151100Z 1512/1618 14008KT 9999 FEW017 BKN020 TEMPO 1512/1522 4000 TSRA FEW010 BKN015CB TEMPO 1600/1604 4800 SHRA PROB40 TEMPO 1605/1613 12015G25KT PROB30 TEMPO 1612/1618 4000 TSRA FEW010 BKN015CB

Decode

Departure Runways

ID Width Length Bearing (true) Bearing (mag) Surface Threshold Offset Overrun Length
11 148 ft / 45 m 10,167 ft / 3,099 m 98.92° 114.08° Asphalt 0 ft / 0 m 90 ft / 27 m
29 148 ft / 45 m 10,167 ft / 3,099 m 278.91° 294.07° Asphalt 0 ft / 0 m 90 ft / 27 m

FMSD

Details ICAO FMSD (FTU)
Name TOLAGNARO
Region Comoros, Mayotte, Réunion and Madagascar
Timezone Indian/Antananarivo (UTC+3.0)
Stats Elevation 29 ft / 9 m (AMSL)
Location -25.039276° 46.956381°
Runways 1
Magnetic Variation 23.800° W

METAR

FMSD 151200Z 22014KT 6000 VCSH FEW010 SCT016 BKN033 23/21 Q1015

Decode

TAF

Not found

Destination Runways

ID Width Length Bearing (true) Bearing (mag) Surface Threshold Offset Overrun Length
08 98 ft / 30 m 4,919 ft / 1,499 m 52.01° 75.81° Asphalt 0 ft / 0 m 0 ft / 0 m
26 98 ft / 30 m 4,919 ft / 1,499 m 232.01° 255.81° Asphalt 0 ft / 0 m 0 ft / 0 m

Popular Alternatives